createdAt,value
2023-05-19T00:01:55.787Z,28.13
2023-05-19T00:04:23.667Z,24.02
2023-05-19T00:06:51.953Z,29.42
2023-05-19T00:09:19.805Z,32.05
2023-05-19T00:11:47.246Z,31.88
2023-05-19T00:14:15.857Z,32.78
2023-05-19T00:16:43.549Z,30.83
2023-05-19T00:19:11.205Z,30.65
2023-05-19T00:21:39.274Z,40.08
2023-05-19T00:24:07.633Z,34.72
2023-05-19T00:26:35.034Z,38.72
2023-05-19T00:29:05.940Z,38.53
2023-05-19T00:31:34.470Z,45.60
2023-05-19T00:34:02.191Z,37.50
2023-05-19T00:36:29.591Z,45.72
2023-05-19T00:38:57.158Z,41.13
2023-05-19T00:41:25.008Z,41.03
2023-05-19T00:43:52.716Z,41.55
2023-05-19T00:46:20.350Z,40.75
2023-05-19T00:48:48.450Z,42.92
2023-05-19T00:51:17.288Z,42.05
2023-05-19T00:53:49.503Z,44.30
2023-05-19T00:56:17.655Z,44.90
2023-05-19T00:58:46.036Z,37.22
2023-05-19T01:01:14.770Z,38.50
2023-05-19T01:03:43.996Z,37.15
2023-05-19T01:06:12.404Z,40.22
2023-05-19T01:08:40.056Z,44.00
2023-05-19T01:11:08.389Z,37.38
2023-05-19T01:13:37.184Z,35.90
2023-05-19T01:16:17.430Z,33.40
2023-05-19T01:19:01.885Z,32.10
2023-05-19T01:22:07.085Z,33.08
2023-05-19T01:25:04.061Z,31.67
2023-05-19T01:28:10.677Z,28.88
2023-05-19T01:30:43.775Z,30.85
2023-05-19T01:33:14.575Z,31.17
2023-05-19T01:35:43.549Z,32.42
2023-05-19T01:38:12.893Z,29.88
2023-05-19T01:40:42.155Z,35.80
2023-05-19T01:43:12.782Z,29.13
2023-05-19T01:45:40.670Z,31.90
2023-05-19T01:48:10.878Z,31.08
2023-05-19T01:50:40.654Z,28.10
2023-05-19T01:53:08.445Z,36.42
2023-05-19T01:55:46.594Z,30.98
2023-05-19T01:58:38.438Z,29.60
2023-05-19T02:01:25.014Z,31.75
2023-05-19T02:04:04.929Z,32.50
2023-05-19T02:06:50.610Z,29.58
2023-05-19T02:09:35.023Z,31.90
2023-05-19T02:12:20.751Z,47.15
2023-05-19T02:15:11.419Z,47.53
2023-05-19T02:17:43.354Z,37.83
2023-05-19T02:20:11.870Z,41.70
2023-05-19T02:22:39.848Z,48.78
2023-05-19T02:25:08.308Z,43.95
2023-05-19T02:27:39.955Z,40.25
2023-05-19T02:30:09.054Z,43.30
2023-05-19T02:32:37.843Z,45.92
2023-05-19T02:35:05.840Z,48.13
2023-05-19T02:37:33.436Z,51.00
2023-05-19T02:40:00.686Z,48.65
2023-05-19T02:42:28.238Z,51.50
2023-05-19T02:44:55.754Z,52.50
2023-05-19T02:47:23.333Z,43.58
2023-05-19T02:49:50.574Z,44.85
2023-05-19T02:52:18.188Z,44.13
2023-05-19T02:54:45.613Z,51.00
2023-05-19T02:57:13.106Z,50.28
2023-05-19T02:59:40.424Z,54.22
2023-05-19T03:02:07.959Z,52.40
2023-05-19T03:04:41.905Z,48.22
2023-05-19T03:07:10.816Z,27.52
2023-05-19T03:09:38.151Z,27.50
2023-05-19T03:12:08.219Z,22.98
2023-05-19T03:14:37.567Z,21.15
2023-05-19T03:17:08.091Z,18.52
2023-05-19T03:19:35.698Z,16.52
2023-05-19T03:22:03.862Z,20.00
2023-05-19T03:24:32.785Z,16.95
2023-05-19T03:27:00.348Z,13.05
2023-05-19T03:29:27.560Z,12.73
2023-05-19T03:31:55.459Z,13.50
2023-05-19T03:34:22.791Z,11.60
2023-05-19T03:36:52.172Z,12.80
2023-05-19T03:39:21.830Z,12.88
2023-05-19T03:41:50.173Z,10.02
2023-05-19T03:44:17.427Z,15.77
2023-05-19T03:46:45.430Z,15.80
2023-05-19T03:49:35.545Z,13.45
2023-05-19T03:52:38.846Z,12.68
2023-05-19T03:55:24.641Z,9.60
2023-05-19T03:57:55.402Z,8.45
2023-05-19T04:00:22.794Z,10.73
2023-05-19T04:02:52.052Z,9.65
2023-05-19T04:05:19.445Z,10.30
2023-05-19T04:07:46.982Z,10.82
2023-05-19T04:10:14.576Z,9.43
2023-05-19T04:12:42.178Z,10.27
2023-05-19T04:15:11.641Z,12.98
2023-05-19T04:17:39.908Z,11.27
2023-05-19T04:20:07.701Z,11.73
2023-05-19T04:22:35.218Z,8.55
2023-05-19T04:25:04.116Z,11.98
2023-05-19T04:27:32.221Z,8.82
2023-05-19T04:29:59.788Z,8.98
2023-05-19T04:32:31.303Z,7.30
2023-05-19T04:34:59.074Z,6.88
2023-05-19T04:37:28.456Z,8.85
2023-05-19T04:39:55.941Z,7.45
2023-05-19T04:42:26.401Z,8.13
2023-05-19T04:44:55.722Z,13.15
2023-05-19T04:47:28.428Z,10.38
2023-05-19T04:49:56.391Z,8.25
2023-05-19T04:52:23.914Z,11.00
2023-05-19T04:54:51.748Z,9.10
2023-05-19T04:57:19.600Z,10.77
2023-05-19T04:59:46.808Z,12.52
2023-05-19T05:02:14.539Z,11.73
2023-05-19T05:04:44.326Z,11.00
2023-05-19T05:07:11.863Z,11.18
2023-05-19T05:09:39.825Z,9.82
2023-05-19T05:12:08.832Z,10.50
2023-05-19T05:14:40.445Z,12.32
2023-05-19T05:17:09.936Z,13.85
2023-05-19T05:19:37.405Z,12.50
2023-05-19T05:22:06.613Z,9.10
2023-05-19T05:24:36.880Z,11.38
2023-05-19T05:27:06.015Z,9.20
2023-05-19T05:29:34.028Z,12.30
2023-05-19T05:32:08.235Z,13.05
2023-05-19T05:34:37.862Z,15.48
2023-05-19T05:37:06.528Z,18.10
2023-05-19T05:39:37.072Z,12.63
2023-05-19T05:42:06.677Z,8.45
2023-05-19T05:44:35.904Z,8.02
2023-05-19T05:47:05.891Z,11.75
2023-05-19T05:49:36.921Z,13.77
2023-05-19T05:52:07.042Z,14.00
2023-05-19T05:54:43.434Z,8.73
2023-05-19T05:57:12.342Z,15.90
2023-05-19T05:59:40.916Z,8.85
2023-05-19T06:02:08.887Z,11.85
2023-05-19T06:04:36.474Z,15.82
2023-05-19T06:07:05.309Z,15.60
2023-05-19T06:09:36.312Z,12.13
2023-05-19T06:12:06.909Z,10.70
2023-05-19T06:14:40.211Z,8.57
2023-05-19T06:17:20.093Z,9.82
2023-05-19T06:19:47.509Z,9.73
2023-05-19T06:22:15.856Z,7.65
2023-05-19T06:24:44.270Z,10.00
2023-05-19T06:27:12.019Z,9.23
2023-05-19T06:29:39.455Z,10.55
2023-05-19T06:32:09.413Z,8.60
2023-05-19T06:34:38.523Z,6.57
2023-05-19T06:37:07.394Z,6.53
2023-05-19T06:39:35.208Z,13.38
2023-05-19T06:42:02.596Z,5.20
2023-05-19T06:44:53.438Z,6.75
2023-05-19T06:47:21.127Z,6.85
2023-05-19T06:49:55.511Z,9.40
2023-05-19T06:52:26.371Z,8.50
2023-05-19T06:54:55.080Z,8.02
2023-05-19T06:57:23.316Z,6.25
2023-05-19T06:59:50.915Z,9.90
2023-05-19T07:02:19.811Z,9.32
2023-05-19T07:04:48.821Z,6.95
2023-05-19T07:07:17.340Z,9.38
2023-05-19T07:09:45.333Z,13.65
2023-05-19T07:12:13.519Z,9.77
2023-05-19T07:14:41.398Z,7.97
2023-05-19T07:17:08.657Z,6.95
2023-05-19T07:19:37.894Z,13.02
2023-05-19T07:22:05.366Z,17.15
2023-05-19T07:24:34.756Z,16.55
2023-05-19T07:27:02.176Z,9.23
2023-05-19T07:29:29.795Z,9.80
2023-05-19T07:31:58.208Z,12.27
2023-05-19T07:34:25.926Z,13.77
2023-05-19T07:36:53.397Z,6.72
2023-05-19T07:39:21.521Z,11.82
2023-05-19T07:41:52.906Z,28.90
2023-05-19T07:44:20.642Z,20.10
2023-05-19T07:46:47.993Z,24.17
2023-05-19T07:49:15.726Z,17.30
2023-05-19T07:51:43.057Z,8.50
2023-05-19T07:54:10.816Z,10.75
2023-05-19T07:56:38.137Z,9.93
2023-05-19T07:59:06.114Z,12.45
2023-05-19T08:01:33.665Z,20.63
2023-05-19T08:04:01.346Z,9.98
2023-05-19T08:06:30.258Z,7.93
2023-05-19T08:08:57.982Z,9.82
2023-05-19T08:11:25.272Z,11.07
2023-05-19T08:13:53.042Z,11.52
2023-05-19T08:16:20.463Z,14.05
2023-05-19T08:18:48.137Z,9.70
2023-05-19T08:21:15.542Z,8.18
2023-05-19T08:23:43.047Z,10.88
2023-05-19T08:26:10.286Z,11.50
2023-05-19T08:28:37.966Z,12.15
2023-05-19T08:31:05.245Z,9.73
2023-05-19T08:33:32.955Z,10.18
2023-05-19T08:36:00.273Z,11.93
2023-05-19T08:38:27.897Z,10.20
2023-05-19T08:40:55.329Z,12.25
2023-05-19T08:43:22.986Z,8.75
2023-05-19T08:45:50.598Z,15.65
2023-05-19T08:48:19.727Z,9.13
2023-05-19T08:50:56.520Z,8.23
2023-05-19T08:53:34.238Z,6.97
2023-05-19T08:56:11.084Z,10.38
2023-05-19T08:58:44.144Z,8.50
2023-05-19T09:01:15.080Z,7.30
2023-05-19T09:03:44.087Z,7.97
2023-05-19T09:06:14.653Z,8.07
2023-05-19T09:08:42.965Z,8.20
2023-05-19T09:11:10.745Z,9.90
2023-05-19T09:13:38.732Z,14.30
2023-05-19T09:16:06.754Z,9.82
2023-05-19T09:18:34.457Z,8.32
2023-05-19T09:21:05.530Z,7.68
2023-05-19T09:23:36.613Z,10.43
2023-05-19T09:26:08.062Z,6.93
2023-05-19T09:28:38.092Z,9.48
2023-05-19T09:31:07.535Z,9.00
2023-05-19T09:33:45.564Z,8.85
2023-05-19T09:36:14.073Z,6.22
2023-05-19T09:38:41.905Z,9.60
2023-05-19T09:41:09.826Z,10.88
2023-05-19T09:43:37.549Z,16.60
2023-05-19T09:46:06.777Z,8.32
2023-05-19T09:48:36.754Z,8.93
2023-05-19T09:51:08.056Z,11.00
2023-05-19T09:53:36.016Z,10.35
2023-05-19T09:56:03.913Z,13.38
2023-05-19T09:58:35.744Z,11.27
2023-05-19T10:01:07.647Z,15.77
2023-05-19T10:03:36.971Z,11.38
2023-05-19T10:06:05.585Z,10.25
2023-05-19T10:08:34.711Z,8.77
2023-05-19T10:11:02.763Z,11.38
2023-05-19T10:13:32.317Z,10.32
2023-05-19T10:16:00.781Z,13.63
2023-05-19T10:18:30.030Z,10.20
2023-05-19T10:20:58.354Z,13.50
2023-05-19T10:23:27.073Z,11.85
2023-05-19T10:25:59.324Z,11.68
2023-05-19T10:28:35.511Z,11.43
2023-05-19T10:33:59.857Z,17.10
2023-05-19T10:36:45.117Z,13.75
2023-05-19T10:39:16.808Z,12.73
2023-05-19T10:41:55.220Z,12.85
2023-05-19T10:44:41.252Z,15.85
2023-05-19T10:47:12.337Z,14.50
2023-05-19T10:49:40.587Z,10.50
2023-05-19T10:52:30.399Z,13.43
2023-05-19T12:24:37.453Z,10.85
2023-05-19T12:27:16.818Z,12.00
2023-05-19T12:29:49.738Z,11.98
2023-05-19T12:32:17.747Z,12.85
2023-05-19T12:34:45.178Z,11.38
2023-05-19T12:37:12.912Z,14.18
2023-05-19T12:39:42.431Z,19.02
2023-05-19T12:42:11.634Z,8.70
2023-05-19T12:44:44.109Z,7.35
2023-05-19T12:47:11.844Z,9.40
2023-05-19T12:50:01.074Z,9.65
2023-05-19T12:52:30.312Z,14.00
2023-05-19T12:55:07.973Z,8.75
2023-05-19T12:57:37.510Z,10.60
2023-05-19T13:00:21.122Z,8.30
2023-05-19T13:03:10.261Z,7.53
2023-05-19T13:05:39.728Z,8.27
2023-05-19T13:08:12.531Z,8.38
2023-05-19T13:10:41.288Z,9.45
2023-05-19T13:13:10.893Z,7.97
2023-05-19T13:15:41.880Z,11.38
2023-05-19T13:18:11.733Z,7.45
2023-05-19T13:20:41.339Z,14.07
2023-05-19T13:23:11.304Z,10.48
2023-05-19T13:25:39.166Z,10.43
2023-05-19T13:28:06.938Z,10.10
2023-05-19T13:30:36.374Z,20.65
2023-05-19T13:33:04.324Z,11.50
2023-05-19T13:35:37.185Z,11.57
2023-05-19T13:38:12.254Z,9.15
2023-05-19T13:43:09.018Z,7.90
2023-05-19T13:45:36.726Z,10.63
2023-05-19T13:48:04.511Z,8.70
2023-05-19T13:50:31.909Z,10.57
2023-05-19T13:53:00.582Z,7.95
2023-05-19T13:55:27.940Z,11.60
2023-05-19T13:57:55.538Z,9.27
2023-05-19T14:00:23.056Z,10.80
2023-05-19T14:02:50.759Z,7.72
2023-05-19T14:05:18.043Z,12.25
2023-05-19T14:07:45.675Z,8.32
2023-05-19T14:10:12.937Z,9.57
2023-05-19T14:13:06.467Z,9.23
2023-05-19T14:15:28.031Z,8.48
2023-05-19T14:17:55.707Z,10.70
2023-05-19T14:20:22.983Z,8.15
2023-05-19T14:22:50.544Z,15.23
2023-05-19T14:25:18.290Z,14.05
2023-05-19T14:27:45.941Z,13.40
2023-05-19T14:30:16.204Z,16.25
2023-05-19T14:32:43.782Z,11.88
2023-05-19T14:35:12.281Z,13.65
2023-05-19T14:37:39.887Z,18.15
2023-05-19T14:40:07.569Z,17.50
2023-05-19T14:42:35.152Z,18.70
2023-05-19T14:45:02.713Z,27.17
2023-05-19T14:47:30.673Z,16.30
2023-05-19T14:49:57.966Z,13.10
2023-05-19T14:52:26.427Z,14.88
2023-05-19T14:54:53.739Z,13.20
2023-05-19T14:57:21.626Z,12.00
2023-05-19T14:59:48.955Z,12.68
2023-05-19T15:02:16.676Z,11.80
2023-05-19T15:04:44.013Z,12.98
2023-05-19T15:07:11.812Z,12.70
2023-05-19T15:09:39.907Z,10.65
2023-05-19T15:12:08.484Z,11.98
2023-05-19T15:14:36.051Z,8.27
2023-05-19T15:17:03.615Z,13.88
2023-05-19T15:19:31.010Z,13.93
2023-05-19T15:21:58.628Z,15.10
2023-05-19T15:24:25.983Z,12.65
2023-05-19T15:26:54.551Z,12.32
2023-05-19T15:29:21.897Z,13.70
2023-05-19T15:31:53.028Z,16.83
2023-05-19T15:34:21.136Z,18.65
2023-05-19T15:36:48.986Z,13.38
2023-05-19T15:39:16.240Z,16.30
2023-05-19T15:41:43.879Z,13.27
2023-05-19T15:44:11.243Z,18.80
2023-05-19T15:46:38.956Z,17.05
2023-05-19T15:49:06.208Z,13.88
2023-05-19T15:51:34.520Z,15.43
2023-05-19T15:54:02.155Z,17.13
2023-05-19T15:56:30.088Z,15.45
2023-05-19T15:58:58.065Z,15.40
2023-05-19T16:01:26.659Z,14.30
2023-05-19T16:03:54.227Z,14.18
2023-05-19T16:06:21.875Z,17.75
2023-05-19T16:08:49.434Z,14.15
2023-05-19T16:11:18.416Z,17.67
2023-05-19T16:13:45.576Z,17.38
2023-05-19T16:16:15.918Z,16.23
2023-05-19T16:18:44.398Z,15.63
2023-05-19T16:21:12.067Z,14.95
2023-05-19T16:23:39.277Z,19.77
2023-05-19T16:26:06.899Z,16.50
2023-05-19T16:28:34.077Z,14.80
2023-05-19T16:31:01.980Z,11.90
2023-05-19T16:33:30.248Z,17.20
2023-05-19T16:35:59.951Z,16.80
2023-05-19T16:38:27.512Z,15.23
2023-05-19T16:40:55.717Z,17.58
2023-05-19T16:43:23.002Z,16.17
2023-05-19T16:45:50.922Z,15.88
2023-05-19T16:48:18.234Z,16.60
2023-05-19T16:50:48.980Z,19.95
2023-05-19T16:53:16.265Z,12.05
2023-05-19T16:55:43.904Z,29.42
2023-05-19T16:58:11.841Z,13.35
2023-05-19T17:00:39.526Z,14.02
2023-05-19T17:03:06.936Z,16.63
2023-05-19T17:05:36.364Z,17.58
2023-05-19T17:08:03.747Z,27.23
2023-05-19T17:10:31.676Z,21.05
2023-05-19T17:13:00.130Z,21.38
2023-05-19T17:15:28.195Z,24.67
2023-05-19T17:17:56.057Z,37.25
2023-05-19T17:20:24.110Z,14.10
2023-05-19T17:22:51.844Z,18.10
2023-05-19T17:25:19.482Z,24.05
2023-05-19T17:27:46.731Z,17.67
2023-05-19T17:30:14.335Z,19.50
2023-05-19T17:32:41.732Z,21.02
2023-05-19T17:35:09.692Z,28.13
2023-05-19T17:37:37.419Z,44.83
2023-05-19T17:40:06.743Z,22.90
2023-05-19T17:42:34.435Z,22.52
2023-05-19T17:45:04.832Z,28.38
2023-05-19T17:47:32.065Z,45.88
2023-05-19T17:49:59.765Z,35.72
2023-05-19T17:52:27.617Z,66.15
2023-05-19T17:54:55.573Z,43.72
2023-05-19T17:57:25.983Z,27.58
2023-05-19T17:59:53.868Z,32.42
2023-05-19T18:02:24.053Z,37.60
2023-05-19T18:04:54.364Z,29.27
2023-05-19T18:07:24.245Z,36.08
2023-05-19T18:09:52.517Z,36.72
2023-05-19T18:12:19.865Z,36.60
2023-05-19T18:14:48.088Z,42.85
2023-05-19T18:17:15.461Z,43.20
2023-05-19T18:19:43.073Z,32.92
2023-05-19T18:22:15.020Z,40.42
2023-05-19T18:24:42.664Z,36.97
2023-05-19T18:27:09.854Z,36.42
2023-05-19T18:29:37.705Z,41.78
2023-05-19T18:32:05.449Z,52.20
2023-05-19T18:34:33.065Z,47.97
2023-05-19T18:37:00.404Z,28.95
2023-05-19T18:39:29.331Z,40.58
2023-05-19T18:41:57.024Z,50.45
2023-05-19T18:44:24.919Z,42.65
2023-05-19T18:46:52.347Z,33.17
2023-05-19T18:49:20.136Z,31.65
2023-05-19T18:51:48.694Z,38.15
2023-05-19T18:54:16.474Z,38.33
2023-05-19T18:56:43.923Z,44.08
2023-05-19T18:59:11.720Z,26.27
2023-05-19T19:01:39.274Z,27.63
2023-05-19T19:04:07.075Z,23.05
2023-05-19T19:06:35.626Z,24.70
2023-05-19T19:09:03.630Z,23.45
2023-05-19T19:11:31.129Z,33.33
2023-05-19T19:13:58.897Z,32.38
2023-05-19T19:16:26.351Z,34.05
2023-05-19T19:18:54.647Z,25.98
2023-05-19T19:21:24.655Z,28.20
2023-05-19T19:23:55.984Z,34.63
2023-05-19T19:26:29.150Z,33.60
2023-05-19T19:28:57.722Z,33.15
2023-05-19T19:31:29.037Z,32.40
2023-05-19T19:34:03.871Z,37.92
2023-05-19T19:36:32.201Z,31.73
2023-05-19T19:39:00.191Z,29.67
2023-05-19T19:41:29.962Z,28.38
2023-05-19T19:43:58.551Z,28.75
2023-05-19T19:46:27.691Z,35.63
2023-05-19T19:49:02.408Z,38.22
2023-05-19T19:51:30.077Z,35.85
2023-05-19T19:53:59.301Z,35.25
2023-05-19T19:56:27.807Z,29.95
2023-05-19T19:58:59.156Z,32.72
2023-05-19T20:01:29.170Z,34.03
2023-05-19T20:03:58.355Z,33.63
2023-05-19T20:06:27.029Z,33.40
2023-05-19T20:08:55.027Z,36.47
2023-05-19T20:11:24.544Z,35.80
2023-05-19T20:13:53.376Z,38.80
2023-05-19T20:16:22.945Z,32.42
2023-05-19T20:18:50.933Z,31.35
2023-05-19T20:21:18.189Z,34.60
2023-05-19T20:23:46.604Z,35.00
2023-05-19T20:26:15.058Z,34.90
2023-05-19T20:28:43.205Z,40.55
2023-05-19T20:31:10.466Z,33.20
2023-05-19T20:33:38.100Z,36.60
2023-05-19T20:36:07.227Z,34.25
2023-05-19T20:38:34.943Z,31.20
2023-05-19T20:41:02.299Z,29.33
2023-05-19T20:43:30.275Z,29.23
2023-05-19T20:45:57.681Z,30.15
2023-05-19T20:48:25.964Z,28.27
2023-05-19T20:50:54.534Z,24.50
2023-05-19T20:53:22.338Z,22.45
2023-05-19T20:55:49.635Z,24.65
2023-05-19T20:58:17.343Z,23.25
2023-05-19T21:00:44.558Z,21.60
2023-05-19T21:03:12.275Z,21.40
2023-05-19T21:05:39.788Z,24.00
2023-05-19T21:08:12.917Z,23.40
2023-05-19T21:10:41.119Z,24.33
2023-05-19T21:13:08.798Z,24.42
2023-05-19T21:15:36.113Z,20.98
2023-05-19T21:18:03.763Z,25.38
2023-05-19T21:20:31.159Z,20.95
2023-05-19T21:23:01.101Z,22.58
2023-05-19T21:25:28.354Z,22.23
2023-05-19T21:27:56.279Z,24.00
2023-05-19T21:30:23.864Z,23.52
2023-05-19T21:32:51.564Z,24.90
2023-05-19T21:35:18.994Z,26.25
2023-05-19T21:37:46.843Z,28.88
2023-05-19T21:40:14.073Z,28.88
2023-05-19T21:42:41.829Z,27.95
2023-05-19T21:45:09.661Z,27.30
2023-05-19T21:47:37.318Z,24.17
2023-05-19T21:50:04.906Z,25.88
2023-05-19T21:52:32.509Z,29.55
2023-05-19T21:54:59.690Z,29.35
2023-05-19T21:57:27.211Z,30.30
2023-05-19T21:59:54.491Z,32.70
2023-05-19T22:02:22.195Z,30.17
2023-05-19T22:04:49.458Z,31.85
2023-05-19T22:07:17.050Z,28.13
2023-05-19T22:09:44.802Z,29.42
2023-05-19T22:12:13.351Z,29.23
2023-05-19T22:14:41.412Z,28.27
2023-05-19T22:17:08.929Z,28.30
2023-05-19T22:19:36.162Z,27.52
2023-05-19T22:22:13.145Z,31.55
2023-05-19T22:24:42.339Z,29.25
2023-05-19T22:27:09.728Z,28.88
2023-05-19T22:29:38.958Z,29.50
2023-05-19T22:32:09.416Z,27.38
2023-05-19T22:34:36.996Z,37.00
2023-05-19T22:37:04.599Z,27.58
2023-05-19T22:39:32.173Z,30.42
2023-05-19T22:41:59.347Z,29.05
2023-05-19T22:44:27.121Z,27.27
2023-05-19T22:46:54.420Z,25.70
2023-05-19T22:49:24.828Z,31.35
2023-05-19T22:51:52.340Z,34.95
2023-05-19T22:54:19.897Z,24.23
2023-05-19T22:56:49.010Z,22.80
2023-05-19T22:59:19.557Z,22.77
2023-05-19T23:01:46.920Z,22.88
2023-05-19T23:04:14.739Z,27.92
2023-05-19T23:06:42.120Z,22.00
2023-05-19T23:09:09.847Z,25.70
2023-05-19T23:11:37.041Z,26.80
2023-05-19T23:14:04.573Z,30.77
2023-05-19T23:16:31.884Z,29.30
2023-05-19T23:18:59.398Z,30.55
2023-05-19T23:21:26.859Z,30.67
2023-05-19T23:23:54.394Z,29.77
2023-05-19T23:26:22.480Z,29.80
2023-05-19T23:28:50.679Z,28.42
2023-05-19T23:31:18.047Z,26.25
2023-05-19T23:33:45.739Z,33.65
2023-05-19T23:36:16.443Z,27.17
2023-05-19T23:38:43.978Z,30.65
2023-05-19T23:41:11.214Z,35.45
2023-05-19T23:43:39.666Z,31.27
2023-05-19T23:46:06.946Z,34.00
2023-05-19T23:48:35.757Z,34.60
2023-05-19T23:51:03.208Z,39.38
2023-05-19T23:53:30.827Z,30.05
2023-05-19T23:55:58.694Z,30.08
2023-05-19T23:58:26.481Z,31.80
